Hardinville, Illinois
Current Conditions -  °F | °C
As of 11:15 AM on Friday 28 Nov 2014 (Local Time) from KRSV Reporting Station
Clear Clear  
Wind Chill: 25°   Ceiling: Unl
Heat Index: 35°   Visibility: 10mi
Dew Point: 28°   Wind: 16mph
Humidity: 76%   Direction: 170°S
Pressure: 30.27"   Gusts: NA
Location:  39.0131°N, 87.7657°W
Report Text: KRSV 281715Z AUTO 17014KT 10SM CLR 02/M02 A3027 RMK AO2 T00171021
Loading
Personal Weather Stations






























Interactive Weather Map New forecast layout! Learn more

10-Day Weather Forecast

Advertisements
Track Severe Weather on mobile